createdAt,value
2018-04-14T00:00:04.106Z,24.7
2018-04-14T00:00:54.545Z,24.7
2018-04-14T00:01:45.075Z,24.7
2018-04-14T00:02:35.144Z,24.7
2018-04-14T00:03:25.206Z,24.7
2018-04-14T00:04:15.297Z,24.7
2018-04-14T00:05:05.341Z,24.7
2018-04-14T00:05:55.102Z,24.7
2018-04-14T00:06:44.919Z,24.7
2018-04-14T00:07:34.669Z,24.6
2018-04-14T00:08:25.301Z,24.7
2018-04-14T00:09:15.350Z,24.7
2018-04-14T00:10:05.704Z,24.7
2018-04-14T00:10:55.812Z,24.7
2018-04-14T00:11:45.841Z,24.7
2018-04-14T00:12:34.868Z,24.7
2018-04-14T00:13:25.966Z,24.7
2018-04-14T00:14:15.472Z,24.7
2018-04-14T00:15:05.534Z,24.7
2018-04-14T00:15:55.912Z,24.7
2018-04-14T00:16:45.946Z,24.7
2018-04-14T00:17:35.996Z,24.7
2018-04-14T00:18:26.344Z,24.7
2018-04-14T00:19:16.456Z,24.7
2018-04-14T00:20:05.355Z,24.7
2018-04-14T00:20:55.944Z,24.7
2018-04-14T00:21:46.318Z,24.7
2018-04-14T00:22:36.395Z,24.7
2018-04-14T00:23:26.429Z,24.7
2018-04-14T00:24:16.505Z,24.7
2018-04-14T00:25:06.868Z,24.7
2018-04-14T00:25:56.935Z,24.7
2018-04-14T00:26:46.404Z,24.7
2018-04-14T00:27:36.244Z,24.7
2018-04-14T00:28:26.294Z,24.7
2018-04-14T00:29:17.159Z,24.7
2018-04-14T00:30:07.247Z,24.7
2018-04-14T00:30:57.268Z,24.7
2018-04-14T00:31:46.791Z,24.7
2018-04-14T00:32:37.445Z,24.7
2018-04-14T00:33:27.496Z,24.8
2018-04-14T00:34:17.534Z,24.8
2018-04-14T00:35:07.331Z,24.7
2018-04-14T00:35:57.415Z,24.7
2018-04-14T00:36:47.483Z,24.7
2018-04-14T00:37:37.512Z,24.8
2018-04-14T00:38:27.595Z,24.8
2018-04-14T00:39:17.061Z,24.8
2018-04-14T00:40:07.986Z,24.8
2018-04-14T00:40:57.790Z,24.8
2018-04-14T00:41:47.293Z,24.8
2018-04-14T00:42:37.882Z,24.8
2018-04-14T00:43:27.673Z,24.8
2018-04-14T00:44:18.312Z,24.8
2018-04-14T00:45:08.096Z,24.8
2018-04-14T00:45:58.153Z,24.8
2018-04-14T00:46:48.188Z,24.7
2018-04-14T00:47:38.254Z,24.8
2018-04-14T00:48:28.629Z,24.8
2018-04-14T00:49:18.390Z,24.8
2018-04-14T00:50:08.510Z,24.8
2018-04-14T00:50:58.520Z,24.8
2018-04-14T00:51:48.889Z,24.8
2018-04-14T00:52:38.653Z,24.8
2018-04-14T00:53:28.994Z,24.8
2018-04-14T00:54:18.233Z,24.8
2018-04-14T00:55:08.829Z,24.8
2018-04-14T00:55:58.938Z,24.8
2018-04-14T00:56:49.270Z,24.8
2018-04-14T00:57:39.375Z,24.8
2018-04-14T00:58:28.543Z,24.8
2018-04-14T00:59:19.158Z,24.8
2018-04-14T01:00:09.496Z,24.8
2018-04-14T01:00:59.574Z,24.8
2018-04-14T01:01:49.380Z,24.8
2018-04-14T01:02:39.688Z,24.8
2018-04-14T01:03:29.767Z,24.8
2018-04-14T01:04:19.834Z,24.8
2018-04-14T01:05:09.597Z,24.8
2018-04-14T01:05:59.422Z,24.8
2018-04-14T01:06:49.742Z,24.8
2018-04-14T01:07:39.852Z,24.8
2018-04-14T01:08:29.600Z,24.8
2018-04-14T01:09:19.665Z,24.8
2018-04-14T01:10:10.272Z,24.8
2018-04-14T01:10:59.529Z,24.8
2018-04-14T01:11:49.285Z,24.8
2018-04-14T01:12:40.183Z,24.8
2018-04-14T01:13:29.991Z,24.8
2018-04-14T01:14:20.596Z,24.8
2018-04-14T01:15:09.814Z,24.8
2018-04-14T01:16:00.208Z,24.8
2018-04-14T01:16:49.950Z,24.8
2018-04-14T01:17:40.580Z,24.8
2018-04-14T01:18:30.362Z,24.8
2018-04-14T01:19:20.687Z,24.8
2018-04-14T01:20:10.739Z,24.8
2018-04-14T01:21:01.119Z,24.8
2018-04-14T01:21:51.150Z,24.8
2018-04-14T01:22:41.446Z,24.8
2018-04-14T01:23:30.167Z,24.8
2018-04-14T01:24:21.365Z,24.8
2018-04-14T01:25:11.410Z,24.8
2018-04-14T01:26:01.503Z,24.8
2018-04-14T01:26:51.037Z,24.8
2018-04-14T01:27:41.086Z,24.8
2018-04-14T01:28:30.550Z,24.8
2018-04-14T01:29:21.447Z,24.8
2018-04-14T01:30:11.212Z,24.8
2018-04-14T01:31:01.871Z,24.8
2018-04-14T01:31:51.126Z,24.8
2018-04-14T01:32:41.135Z,24.8
2018-04-14T01:33:32.071Z,24.8
2018-04-14T01:34:21.844Z,24.8
2018-04-14T01:35:11.059Z,24.8
2018-04-14T01:36:01.722Z,24.8
2018-04-14T01:36:52.076Z,24.8
2018-04-14T01:37:41.594Z,24.8
2018-04-14T01:38:31.862Z,24.8
2018-04-14T01:39:21.365Z,24.8
2018-04-14T01:40:12.595Z,24.8
2018-04-14T01:41:01.777Z,24.8
2018-04-14T01:41:52.431Z,24.9
2018-04-14T01:42:41.917Z,24.8
2018-04-14T01:43:32.272Z,24.8
2018-04-14T01:44:22.588Z,24.9
2018-04-14T01:45:12.941Z,24.8
2018-04-14T01:46:02.739Z,24.8
2018-04-14T01:46:52.224Z,24.8
2018-04-14T01:47:42.823Z,24.8
2018-04-14T01:48:32.903Z,24.9
2018-04-14T01:49:22.701Z,24.9
2018-04-14T01:50:12.753Z,24.8
2018-04-14T01:51:02.562Z,24.8
2018-04-14T01:51:53.474Z,24.8
2018-04-14T01:52:43.519Z,24.9
2018-04-14T01:53:33.025Z,24.9
2018-04-14T01:54:23.355Z,24.9
2018-04-14T01:55:13.419Z,24.8
2018-04-14T01:56:03.823Z,24.9
2018-04-14T01:56:53.292Z,24.9
2018-04-14T01:57:43.039Z,24.9
2018-04-14T01:58:33.956Z,24.9
2018-04-14T01:59:24.018Z,24.9
2018-04-14T02:00:13.539Z,24.9
2018-04-14T02:01:03.625Z,24.9
2018-04-14T02:01:53.650Z,24.9
2018-04-14T02:02:43.435Z,24.9
2018-04-14T02:03:34.057Z,24.9
2018-04-14T02:04:24.142Z,24.9
2018-04-14T02:05:13.920Z,24.9
2018-04-14T02:06:04.286Z,24.9
2018-04-14T02:06:54.022Z,24.9
2018-04-14T02:07:43.809Z,24.9
2018-04-14T02:08:33.866Z,24.9
2018-04-14T02:09:23.958Z,24.9
2018-04-14T02:10:14.613Z,24.9
2018-04-14T02:11:04.069Z,24.9
2018-04-14T02:11:54.929Z,24.9
2018-04-14T02:12:44.759Z,24.9
2018-04-14T02:13:34.246Z,24.9
2018-04-14T02:14:24.875Z,24.9
2018-04-14T02:15:14.399Z,24.9
2018-04-14T02:16:04.444Z,24.9
2018-04-14T02:16:55.355Z,24.9
2018-04-14T02:17:44.266Z,24.9
2018-04-14T02:18:35.535Z,24.9
2018-04-14T02:19:25.601Z,24.9
2018-04-14T02:20:14.763Z,24.9
2018-04-14T02:21:05.410Z,24.9
2018-04-14T02:21:55.701Z,24.9
2018-04-14T02:22:45.512Z,24.9
2018-04-14T02:23:35.618Z,24.9
2018-04-14T02:24:25.708Z,24.9
2018-04-14T02:25:15.133Z,24.9
2018-04-14T02:26:05.778Z,24.9
2018-04-14T02:26:55.847Z,24.9
2018-04-14T02:27:45.595Z,24.9
2018-04-14T02:28:36.201Z,24.9
2018-04-14T02:29:25.453Z,24.9
2018-04-14T02:30:15.848Z,24.9
2018-04-14T02:31:06.450Z,24.9
2018-04-14T02:31:55.935Z,24.9
2018-04-14T02:32:46.285Z,24.9
2018-04-14T02:33:36.371Z,24.9
2018-04-14T02:34:26.400Z,24.9
2018-04-14T02:35:16.752Z,24.9
2018-04-14T02:36:06.568Z,24.9
2018-04-14T02:36:56.635Z,24.9
2018-04-14T02:37:46.409Z,24.9
2018-04-14T02:38:37.051Z,24.9
2018-04-14T02:39:26.545Z,24.9
2018-04-14T02:40:17.202Z,24.9
2018-04-14T02:41:07.209Z,24.9
2018-04-14T02:41:56.707Z,24.9
2018-04-14T02:42:47.021Z,24.9
2018-04-14T02:43:36.566Z,24.9
2018-04-14T02:44:27.249Z,24.9
2018-04-14T02:45:16.945Z,24.9
2018-04-14T02:46:07.305Z,24.9
2018-04-14T02:46:57.660Z,24.9
2018-04-14T02:47:47.447Z,24.9
2018-04-14T02:48:37.245Z,24.9
2018-04-14T02:49:27.874Z,24.9
2018-04-14T02:50:17.919Z,24.9
2018-04-14T02:51:07.713Z,24.9
2018-04-14T02:51:57.718Z,24.9
2018-04-14T02:52:47.808Z,24.9
2018-04-14T02:53:37.319Z,24.9
2018-04-14T02:54:27.944Z,24.9
2018-04-14T02:55:18.009Z,24.9
2018-04-14T02:56:07.841Z,24.9
2018-04-14T02:56:57.856Z,24.9
2018-04-14T02:57:48.173Z,24.9
2018-04-14T02:58:37.979Z,24.9
2018-04-14T02:59:28.041Z,24.9
2018-04-14T03:00:18.649Z,24.9
2018-04-14T03:01:08.410Z,25
2018-04-14T03:01:58.813Z,24.9
2018-04-14T03:02:47.999Z,25
2018-04-14T03:03:38.643Z,24.9
2018-04-14T03:04:29.040Z,25
2018-04-14T03:05:19.030Z,24.9
2018-04-14T03:06:08.800Z,24.9
2018-04-14T03:06:58.299Z,24.9
2018-04-14T03:07:48.371Z,24.9
2018-04-14T03:08:39.033Z,25
2018-04-14T03:09:28.844Z,24.9
2018-04-14T03:10:19.807Z,25
2018-04-14T03:11:08.911Z,24.9
2018-04-14T03:11:59.238Z,24.9
2018-04-14T03:12:49.390Z,24.9
2018-04-14T03:13:39.403Z,24.9
2018-04-14T03:14:29.740Z,24.9
2018-04-14T03:15:19.801Z,25
2018-04-14T03:16:09.343Z,25
2018-04-14T03:16:59.890Z,24.9
2018-04-14T03:17:49.760Z,25
2018-04-14T03:18:39.737Z,25
2018-04-14T03:19:29.799Z,25
2018-04-14T03:20:19.311Z,25
2018-04-14T03:21:09.650Z,25
2018-04-14T03:21:59.461Z,25
2018-04-14T03:22:49.520Z,25
2018-04-14T03:23:39.577Z,25
2018-04-14T03:24:30.475Z,25
2018-04-14T03:25:20.340Z,25
2018-04-14T03:26:10.592Z,25
2018-04-14T03:27:00.383Z,25
2018-04-14T03:27:50.415Z,25
2018-04-14T03:28:40.534Z,25
2018-04-14T03:29:30.590Z,25
2018-04-14T03:30:19.797Z,25
2018-04-14T03:31:10.760Z,25
2018-04-14T03:32:00.186Z,25
2018-04-14T03:32:50.831Z,25
2018-04-14T03:33:41.161Z,25
2018-04-14T03:34:30.685Z,25
2018-04-14T03:35:21.337Z,25
2018-04-14T03:36:11.337Z,25
2018-04-14T03:37:01.416Z,25
2018-04-14T03:37:51.204Z,25
2018-04-14T03:38:41.262Z,25
2018-04-14T03:39:31.602Z,25
2018-04-14T03:40:21.399Z,25
2018-04-14T03:41:11.193Z,25
2018-04-14T03:42:01.545Z,25
2018-04-14T03:42:51.845Z,25.1
2018-04-14T03:43:41.368Z,25
2018-04-14T03:44:32.005Z,25
2018-04-14T03:45:21.766Z,25
2018-04-14T03:46:12.128Z,25.1
2018-04-14T03:47:02.389Z,25
2018-04-14T03:47:51.970Z,25
2018-04-14T03:48:41.990Z,25.1
2018-04-14T03:49:31.845Z,25.1
2018-04-14T03:50:22.198Z,25.1
2018-04-14T03:51:12.210Z,25.1
2018-04-14T03:52:01.730Z,25.1
2018-04-14T03:52:52.647Z,25
2018-04-14T03:53:42.685Z,25.1
2018-04-14T03:54:32.217Z,25.1
2018-04-14T03:55:22.540Z,25.1
2018-04-14T03:56:12.911Z,25.1
2018-04-14T03:57:02.101Z,25.1
2018-04-14T03:57:52.725Z,25.1
2018-04-14T03:58:42.528Z,25.1
2018-04-14T03:59:33.129Z,25
2018-04-14T04:00:22.602Z,25.1
2018-04-14T04:01:12.985Z,25.1
2018-04-14T04:02:03.055Z,25.1
2018-04-14T04:02:53.352Z,25.1
2018-04-14T04:03:43.467Z,25.1
2018-04-14T04:04:33.511Z,25.1
2018-04-14T04:05:23.286Z,25.1
2018-04-14T04:06:13.370Z,25.1
2018-04-14T04:07:03.122Z,25.1
2018-04-14T04:07:53.756Z,25.1
2018-04-14T04:08:43.632Z,25.1
2018-04-14T04:09:33.892Z,25.1
2018-04-14T04:10:23.692Z,25.1
2018-04-14T04:11:14.001Z,25.1
2018-04-14T04:12:04.071Z,25.1
2018-04-14T04:12:54.149Z,25.1
2018-04-14T04:13:44.203Z,25.1
2018-04-14T04:14:33.733Z,25.1
2018-04-14T04:15:24.031Z,25.1
2018-04-14T04:16:14.457Z,25.1
2018-04-14T04:17:03.614Z,25.1
2018-04-14T04:17:53.981Z,25.1
2018-04-14T04:18:44.306Z,25.1
2018-04-14T04:19:34.672Z,25.1
2018-04-14T04:20:24.714Z,25.1
2018-04-14T04:21:14.781Z,25.1
2018-04-14T04:22:04.831Z,25.1
2018-04-14T04:22:54.882Z,25.1
2018-04-14T04:23:44.703Z,25.1
2018-04-14T04:24:34.163Z,25.1
2018-04-14T04:25:24.801Z,25.1
2018-04-14T04:26:15.154Z,25.1
2018-04-14T04:27:05.210Z,25.1
2018-04-14T04:27:54.450Z,25.1
2018-04-14T04:28:45.045Z,25.1
2018-04-14T04:29:35.403Z,25.1
2018-04-14T04:30:25.170Z,25.1
2018-04-14T04:31:15.230Z,25.1
2018-04-14T04:32:05.306Z,25.1
2018-04-14T04:32:54.828Z,25.1
2018-04-14T04:33:45.433Z,25.1
2018-04-14T04:34:35.258Z,25.1
2018-04-14T04:35:25.840Z,25.1
2018-04-14T05:24:09.815Z,24.8
2018-04-14T05:25:00.464Z,24.8
2018-04-14T05:25:50.277Z,24.8
2018-04-14T05:26:40.277Z,24.8
2018-04-14T05:27:30.926Z,24.8
2018-04-14T05:28:20.404Z,24.8
2018-04-14T05:29:11.030Z,24.8
2018-04-14T05:30:00.826Z,24.8
2018-04-14T05:30:50.655Z,24.8
2018-04-14T05:31:40.921Z,24.8
2018-04-14T05:32:31.009Z,24.8
2018-04-14T05:33:21.055Z,24.8
2018-04-14T05:34:11.130Z,24.8
2018-04-14T05:35:01.528Z,24.8
2018-04-14T05:35:50.985Z,24.8
2018-04-14T05:36:41.307Z,24.8
2018-04-14T05:37:32.216Z,24.8
2018-04-14T05:38:21.753Z,24.8
2018-04-14T05:39:10.353Z,24.8
2018-04-14T05:40:01.603Z,24.8
2018-04-14T05:40:51.366Z,24.8
2018-04-14T05:41:41.432Z,24.8
2018-04-14T05:42:31.193Z,24.7
2018-04-14T05:43:21.579Z,24.6
2018-04-14T05:44:12.140Z,24.6
2018-04-14T05:45:02.212Z,24.5
2018-04-14T05:45:52.000Z,24.4
2018-04-14T05:46:41.490Z,24.4
2018-04-14T05:47:32.144Z,24.3
2018-04-14T05:48:21.935Z,24.1
2018-04-14T05:49:11.976Z,24
2018-04-14T05:50:02.313Z,23.8
2018-04-14T05:50:51.633Z,23.5
2018-04-14T05:51:42.181Z,29.6
2018-04-14T05:52:32.546Z,29.9
2018-04-14T05:53:22.351Z,32.7
2018-04-14T05:54:11.561Z,33.1
2018-04-14T05:55:02.157Z,31.7
2018-04-14T05:55:53.031Z,28.4
2018-04-14T05:56:43.111Z,25.4
2018-04-14T05:57:32.654Z,23.6
2018-04-14T05:58:23.274Z,28.1
2018-04-14T05:59:13.023Z,29.2
2018-04-14T06:00:03.374Z,30.4
2018-04-14T06:00:52.856Z,31.1
2018-04-14T06:01:42.927Z,31.1
2018-04-14T06:02:33.008Z,30.6
2018-04-14T06:03:23.613Z,30.1
2018-04-14T06:04:12.855Z,30.1
2018-04-14T06:05:02.891Z,30.2
2018-04-14T06:05:52.975Z,30.4
2018-04-14T06:06:43.907Z,30.6
2018-04-14T06:07:33.683Z,30.6
2018-04-14T06:08:24.012Z,30.6
2018-04-14T06:09:14.060Z,30.7
2018-04-14T06:10:03.863Z,30.8
2018-04-14T06:10:54.198Z,30.9
2018-04-14T06:11:43.712Z,31.1
2018-04-14T06:12:33.749Z,31.3
2018-04-14T06:13:23.813Z,31.3
2018-04-14T06:14:14.166Z,31.4
2018-04-14T06:15:04.369Z,31.6
2018-04-14T06:15:54.532Z,31.8
2018-04-14T06:16:44.359Z,31.8
2018-04-14T06:17:34.679Z,31.8
2018-04-14T06:18:24.734Z,31.9
2018-04-14T06:19:13.967Z,32.1
2018-04-14T06:20:05.002Z,32.3
2018-04-14T06:20:54.374Z,32.3
2018-04-14T06:21:44.717Z,32.2
2018-04-14T06:22:34.796Z,32.3
2018-04-14T06:23:25.105Z,32.4
2018-04-14T06:24:14.346Z,32.5
2018-04-14T06:25:05.279Z,32.6
2018-04-14T06:25:55.313Z,32.8
2018-04-14T06:26:45.125Z,32.9
2018-04-14T06:27:35.154Z,33.1
2018-04-14T06:28:25.489Z,33.3
2018-04-14T06:29:15.051Z,33.4
2018-04-14T06:30:05.618Z,33.6
2018-04-14T06:30:55.726Z,33.7
2018-04-14T06:31:45.493Z,33.9
2018-04-14T06:32:36.031Z,34.1
2018-04-14T06:33:25.891Z,34.2
2018-04-14T06:34:15.390Z,34.4
2018-04-14T06:35:05.178Z,34.6
2018-04-14T06:35:55.565Z,34.7
2018-04-14T06:36:45.861Z,34.9
2018-04-14T06:37:35.941Z,35
2018-04-14T06:38:25.516Z,35.1
2018-04-14T06:39:16.081Z,35.3
2018-04-14T06:40:05.581Z,35.5
2018-04-14T06:40:55.956Z,35.6
2018-04-14T06:41:46.040Z,35.7
2018-04-14T06:42:36.190Z,35.9
2018-04-14T06:43:26.629Z,36.1
2018-04-14T06:44:16.167Z,36.2
2018-04-14T06:45:05.987Z,36.4
2018-04-14T06:45:56.847Z,36.5
2018-04-14T06:46:46.905Z,36.7
2018-04-14T06:47:36.122Z,36.8
2018-04-14T06:48:26.532Z,37
2018-04-14T06:49:16.032Z,37.1
2018-04-14T06:50:05.916Z,36.9
2018-04-14T06:50:55.595Z,36.7
2018-04-14T06:51:47.318Z,36.5
2018-04-14T06:52:37.333Z,36.2
2018-04-14T06:53:27.119Z,35.9
2018-04-14T06:54:16.357Z,35.9
2018-04-14T06:55:06.775Z,35.8
2018-04-14T06:55:57.635Z,35.4
2018-04-14T06:56:47.128Z,35.3
2018-04-14T06:57:37.437Z,35.4
2018-04-14T06:58:27.784Z,35.6
2018-04-14T06:59:17.904Z,35.8
2018-04-14T07:00:07.084Z,35.9
2018-04-14T07:00:57.713Z,35.9
2018-04-14T07:01:48.037Z,36.1
2018-04-14T07:02:37.857Z,36.3
2018-04-14T07:03:27.596Z,36.6
2018-04-14T07:04:17.975Z,36.7
2018-04-14T07:05:08.032Z,36.6
2018-04-14T07:05:57.824Z,36.8
2018-04-14T07:06:47.894Z,36.9
2018-04-14T07:07:38.019Z,37.1
2018-04-14T07:08:28.280Z,37.3
2018-04-14T07:09:18.350Z,37.4
2018-04-14T07:10:08.384Z,37.6
2018-04-14T07:10:58.749Z,37.8
2018-04-14T07:11:48.248Z,38
2018-04-14T07:12:38.861Z,38.2
2018-04-14T07:13:28.399Z,38.4
2018-04-14T07:14:18.188Z,38.6
2018-04-14T07:15:07.740Z,38.8
2018-04-14T07:15:58.555Z,39
2018-04-14T07:16:48.943Z,39.2
2018-04-14T07:17:39.006Z,39.4
2018-04-14T07:18:29.063Z,39.5
2018-04-14T07:19:19.146Z,39.7
2018-04-14T07:20:08.688Z,39.9
2018-04-14T07:20:58.671Z,40.1
2018-04-14T07:21:49.405Z,40.3
2018-04-14T07:22:39.412Z,40.5
2018-04-14T07:23:29.500Z,40.7
2018-04-14T07:24:19.788Z,40.9
2018-04-14T07:25:09.100Z,41.1
2018-04-14T07:25:58.866Z,41.3
2018-04-14T07:26:49.830Z,41.5
2018-04-14T07:27:38.976Z,41.7
2018-04-14T07:28:29.641Z,41.8
2018-04-14T07:29:19.857Z,41.9
2018-04-14T07:30:09.648Z,42.1
2018-04-14T07:31:00.051Z,42.3
2018-04-14T07:31:50.359Z,42.6
2018-04-14T07:32:39.853Z,42.8
2018-04-14T07:33:30.195Z,42.9
2018-04-14T07:34:20.544Z,43.1
2018-04-14T07:35:09.795Z,43.3
2018-04-14T07:35:59.612Z,43.4
2018-04-14T07:36:50.308Z,43.6
2018-04-14T07:37:41.085Z,43.8
2018-04-14T07:38:29.737Z,43.9
2018-04-14T07:39:19.614Z,44.1
2018-04-14T07:40:10.439Z,44.3
2018-04-14T07:41:00.191Z,44.4
2018-04-14T07:41:50.081Z,44.6
2018-04-14T07:42:39.493Z,44.8
2018-04-14T07:43:30.469Z,44.9
2018-04-14T07:44:19.970Z,45.1
2018-04-14T07:45:10.906Z,45.3
2018-04-14T07:46:00.409Z,45.4
2018-04-14T07:46:50.755Z,45.6
2018-04-14T07:47:41.305Z,45.8
2018-04-14T07:48:31.361Z,45.9
2018-04-14T07:49:21.699Z,46.1
2018-04-14T07:50:11.220Z,46.3
2018-04-14T07:51:01.853Z,46.4
2018-04-14T07:51:51.347Z,46.6
2018-04-14T07:52:42.002Z,46.8
2018-04-14T07:53:31.745Z,46.9
2018-04-14T07:54:22.081Z,47.1
2018-04-14T07:55:12.171Z,47.2
2018-04-14T07:56:02.268Z,47.4
2018-04-14T07:56:52.328Z,47.6
2018-04-14T07:57:42.011Z,47.7
2018-04-14T07:58:31.860Z,47.9
2018-04-14T07:59:22.221Z,48.1
2018-04-14T08:00:12.299Z,48.3
2018-04-14T08:01:02.087Z,48.4
2018-04-14T08:01:52.418Z,48.5
2018-04-14T08:02:42.503Z,48.7
2018-04-14T08:03:32.186Z,48.9
2018-04-14T08:04:22.611Z,49
2018-04-14T08:05:12.060Z,49.2
2018-04-14T08:06:02.443Z,49.4
2018-04-14T08:06:52.219Z,49.5
2018-04-14T08:07:43.140Z,49.6
2018-04-14T08:08:32.911Z,49.8
2018-04-14T08:09:23.011Z,49.8
2018-04-14T08:10:12.777Z,50
2018-04-14T08:11:02.858Z,50.1
2018-04-14T08:11:53.168Z,50.1
2018-04-14T08:12:42.935Z,50.1
2018-04-14T08:13:33.578Z,50.2
2018-04-14T08:14:23.337Z,50.3
2018-04-14T08:15:12.573Z,50.5
2018-04-14T08:16:03.793Z,50.6
2018-04-14T08:16:53.272Z,50
2018-04-14T08:17:43.934Z,48.9
2018-04-14T08:18:33.993Z,48.9
2018-04-14T08:19:23.765Z,49.1
2018-04-14T08:20:13.780Z,49.3
2018-04-14T08:21:03.886Z,49.6
2018-04-14T08:21:53.981Z,49.7
2018-04-14T08:22:43.983Z,49.8
2018-04-14T08:23:34.085Z,49.8
2018-04-14T08:24:23.807Z,50
2018-04-14T08:25:14.481Z,50.3
2018-04-14T08:26:04.290Z,50.5
2018-04-14T08:26:54.332Z,50.7
2018-04-14T08:27:44.634Z,50.9
2018-04-14T08:28:34.427Z,51.1
2018-04-14T08:29:24.519Z,51.3
2018-04-14T08:30:14.836Z,51.5
2018-04-14T08:31:04.667Z,51.8
2018-04-14T08:32:44.757Z,52.1
2018-04-14T08:33:34.315Z,52.3
2018-04-14T08:34:24.604Z,52.5
2018-04-14T08:35:15.336Z,52.8
2018-04-14T08:36:05.266Z,52.9
2018-04-14T08:36:53.953Z,53.1
2018-04-14T08:37:44.838Z,53.3
2018-04-14T08:38:35.215Z,53.4
2018-04-14T08:39:24.805Z,53.6
2018-04-14T08:40:15.330Z,53.8
2018-04-14T08:41:05.393Z,53.9
2018-04-14T08:41:54.875Z,53.9
2018-04-14T08:42:45.788Z,54.1
2018-04-14T08:43:35.045Z,54.2
2018-04-14T08:44:25.700Z,54.4
2018-04-14T08:45:15.227Z,54.6
2018-04-14T08:46:05.305Z,54.8
2018-04-14T08:46:55.845Z,54.9
2018-04-14T08:48:35.699Z,55.2
2018-04-14T08:49:26.322Z,55.4
2018-04-14T08:50:15.824Z,55.5
2018-04-14T08:51:06.196Z,55.7
2018-04-14T08:51:56.233Z,55.9
2018-04-14T08:52:46.288Z,55.9
2018-04-14T08:53:36.636Z,56.1
2018-04-14T08:54:26.443Z,56.2
2018-04-14T08:55:16.528Z,56.4
2018-04-14T08:56:06.533Z,56.5
2018-04-14T08:56:56.314Z,56.6
2018-04-14T08:57:46.633Z,56.8
2018-04-14T08:58:36.723Z,56.9
2018-04-14T08:59:26.358Z,56.9
2018-04-14T09:00:17.194Z,57.1
2018-04-14T09:01:06.958Z,57.3
2018-04-14T09:01:57.237Z,57.4
2018-04-14T09:02:47.360Z,57.5
2018-04-14T09:03:36.839Z,57.6
2018-04-14T09:05:16.527Z,57.7
2018-04-14T09:06:07.313Z,56.9
2018-04-14T09:06:57.365Z,56.6
2018-04-14T09:07:47.457Z,56.6
2018-04-14T09:08:36.962Z,56.8
2018-04-14T09:09:27.307Z,57.1
2018-04-14T09:10:17.372Z,57.1
2018-04-14T09:11:07.727Z,57.3
2018-04-14T09:11:57.795Z,57.3
2018-04-14T09:12:48.071Z,57.5
2018-04-14T09:13:37.601Z,57.7
2018-04-14T09:14:27.987Z,57.9
2018-04-14T09:15:18.327Z,58.1
2018-04-14T09:16:08.483Z,58.2
2018-04-14T09:16:57.897Z,58.3
2018-04-14T09:17:48.221Z,58.5
2018-04-14T09:18:37.719Z,58.6
2018-04-14T09:19:27.329Z,58.8
2018-04-14T09:20:18.654Z,58.9
2018-04-14T09:21:08.216Z,59.1
2018-04-14T09:21:58.259Z,59.3
2018-04-14T09:22:48.061Z,59.4
2018-04-14T09:23:38.701Z,59.4
2018-04-14T09:24:28.742Z,59.6
2018-04-14T09:25:18.501Z,59.8
2018-04-14T09:26:08.882Z,59.9
2018-04-14T09:26:58.948Z,60.1
2018-04-14T09:27:49.003Z,60.1
2018-04-14T09:28:39.134Z,60.2
2018-04-14T09:29:28.858Z,60.4
2018-04-14T09:30:19.177Z,60.5
2018-04-14T09:31:09.282Z,60.6
2018-04-14T09:31:59.049Z,60.8
2018-04-14T09:32:49.714Z,60.9
2018-04-14T09:33:38.911Z,61
2018-04-14T09:34:29.827Z,61.1
2018-04-14T09:35:19.902Z,61.2
2018-04-14T09:36:09.936Z,61.3
2018-04-14T09:36:59.894Z,61.4
2018-04-14T09:37:49.801Z,61.6
2018-04-14T09:38:39.857Z,61.6
2018-04-14T09:39:29.362Z,61.7
2018-04-14T09:40:19.707Z,61.8
2018-04-14T09:41:10.045Z,62
2018-04-14T09:42:00.174Z,62.1
2018-04-14T09:42:50.220Z,62.2
2018-04-14T09:43:39.976Z,62.3
2018-04-14T09:44:30.086Z,62.3
2018-04-14T09:45:20.370Z,62.4
2018-04-14T09:46:10.140Z,62.5
2018-04-14T09:47:00.790Z,62.6
2018-04-14T09:47:50.840Z,62.8
2018-04-14T09:48:40.065Z,62.8
2018-04-14T09:49:30.402Z,62.9
2018-04-14T09:50:20.783Z,63.1
2018-04-14T09:51:10.624Z,63.2
2018-04-14T09:52:00.316Z,63.3
2018-04-14T09:52:50.675Z,63.4
2018-04-14T09:53:40.427Z,63.5
2018-04-14T09:54:29.368Z,63.6
2018-04-14T09:55:21.152Z,63.6
2018-04-14T09:56:10.965Z,63.7
2018-04-14T09:57:01.275Z,63.8
2018-04-14T09:57:51.629Z,63.9
2018-04-14T09:58:41.682Z,63.9
2018-04-14T09:59:31.206Z,64.1
2018-04-14T10:00:21.252Z,64.2
2018-04-14T10:01:11.904Z,64.3
2018-04-14T10:02:01.968Z,64.4
2018-04-14T10:02:52.116Z,64.4
2018-04-14T10:03:41.804Z,64.5
2018-04-14T10:04:31.583Z,64.6
2018-04-14T10:05:21.386Z,64.7
2018-04-14T10:06:11.697Z,64.8
2018-04-14T10:07:02.334Z,64.9
2018-04-14T10:07:51.946Z,64.9
2018-04-14T10:08:42.467Z,65
2018-04-14T10:09:32.238Z,65.1
2018-04-14T10:10:22.204Z,65.2
2018-04-14T10:11:12.118Z,65.3
2018-04-14T10:12:02.728Z,65.3
2018-04-14T10:12:52.518Z,65.5
2018-04-14T10:13:42.281Z,65.4
2018-04-14T10:14:32.405Z,65.6
2018-04-14T10:15:22.407Z,65.8
2018-04-14T10:16:12.934Z,65.9
2018-04-14T10:17:02.288Z,65.9
2018-04-14T10:17:52.613Z,66.1
2018-04-14T10:18:42.718Z,66.1
2018-04-14T10:19:32.186Z,66.2
2018-04-14T10:20:22.787Z,66.4
2018-04-14T10:21:13.459Z,66.4
2018-04-14T10:22:03.192Z,66.5
2018-04-14T10:22:52.725Z,66.5
2018-04-14T10:23:43.607Z,66.5
2018-04-14T10:24:33.692Z,66.8
2018-04-14T10:25:23.484Z,66.9
2018-04-14T10:26:13.857Z,66.9
2018-04-14T10:27:04.238Z,66.9
2018-04-14T10:27:53.387Z,67.1
2018-04-14T10:28:43.534Z,67.2
2018-04-14T10:29:33.230Z,67.3
2018-04-14T10:30:24.248Z,67.4
2018-04-14T10:31:14.230Z,67.4
2018-04-14T10:32:03.432Z,67.6
2018-04-14T10:32:53.609Z,67.6
2018-04-14T10:33:44.151Z,67.8
2018-04-14T10:34:34.475Z,67.8
2018-04-14T10:35:24.280Z,67.8
2018-04-14T10:36:14.338Z,67.9
2018-04-14T10:37:04.375Z,68.1
2018-04-14T10:37:55.642Z,68.1
2018-04-14T10:38:44.215Z,68.2
2018-04-14T10:39:34.563Z,68.3
2018-04-14T10:40:24.358Z,68.3
2018-04-14T10:41:14.705Z,68.4
2018-04-14T10:42:04.798Z,68.6
2018-04-14T10:42:54.536Z,68.6
2018-04-14T10:43:45.192Z,68.6
2018-04-14T10:44:34.741Z,68.8
2018-04-14T10:45:25.090Z,68.8
2018-04-14T10:46:15.386Z,68.9
2018-04-14T10:47:04.648Z,69
2018-04-14T10:47:55.012Z,69
2018-04-14T10:48:45.279Z,69.1
2018-04-14T10:49:35.368Z,69.2
2018-04-14T10:50:25.147Z,69.3
2018-04-14T10:51:14.448Z,69.3
2018-04-14T10:52:05.554Z,69.4
2018-04-14T10:52:55.326Z,69.4
2018-04-14T10:53:45.134Z,69.6
2018-04-14T10:54:34.599Z,69.6
2018-04-14T10:55:25.518Z,69.7
2018-04-14T10:56:15.881Z,69.8
2018-04-14T10:57:05.658Z,69.8
2018-04-14T10:57:55.742Z,69.9
2018-04-14T10:58:45.800Z,69.9
2018-04-14T10:59:36.181Z,70
2018-04-14T11:00:25.921Z,70.1
2018-04-14T11:01:15.540Z,70.1
2018-04-14T11:02:06.365Z,70.2
2018-04-14T11:02:55.923Z,70.3
2018-04-14T11:03:46.463Z,70.3
2018-04-14T11:04:36.800Z,70.4
2018-04-14T11:05:26.862Z,70.5
2018-04-14T11:06:16.092Z,70.6
2018-04-14T11:07:06.974Z,70.6
2018-04-14T11:07:57.067Z,70.6
2018-04-14T11:08:47.153Z,70.8
2018-04-14T11:09:36.368Z,70.8
2018-04-14T11:10:27.010Z,70.9
2018-04-14T11:11:17.061Z,70.9
2018-04-14T11:12:07.134Z,71
2018-04-14T11:12:57.471Z,71.1
2018-04-14T11:13:46.973Z,71.1
2018-04-14T11:14:37.039Z,71.1
2018-04-14T11:15:27.105Z,71.2
2018-04-14T11:16:17.160Z,71.3
2018-04-14T11:17:07.508Z,71.3
2018-04-14T11:17:57.593Z,71.4
2018-04-14T11:18:47.912Z,71.4
2018-04-14T11:19:37.421Z,71.6
2018-04-14T11:20:27.760Z,71.6
2018-04-14T11:21:16.743Z,71.7
2018-04-14T11:22:07.621Z,71.7
2018-04-14T11:22:58.235Z,71.8
2018-04-14T11:23:47.737Z,71.8
2018-04-14T11:24:37.821Z,71.9
2018-04-14T11:25:27.886Z,71.9
2018-04-14T11:26:17.936Z,72
2018-04-14T11:27:08.567Z,72
2018-04-14T11:27:58.623Z,72.1
2018-04-14T11:28:48.157Z,72.1
2018-04-14T11:29:38.505Z,72.2
2018-04-14T11:30:28.892Z,72.3
2018-04-14T11:31:19.062Z,72.3
2018-04-14T11:32:08.730Z,72.4
2018-04-14T11:32:57.883Z,72.4
2018-04-14T11:33:49.099Z,72.4
2018-04-14T11:34:38.612Z,72.5
2018-04-14T11:35:28.731Z,72.6
2018-04-14T11:36:18.431Z,72.6
2018-04-14T11:37:08.580Z,72.6
2018-04-14T11:37:59.219Z,72.7
2018-04-14T11:38:49.198Z,72.8
2018-04-14T11:39:54.209Z,72.8
2018-04-14T11:40:29.378Z,72.8
2018-04-14T11:41:19.406Z,72.9
2018-04-14T11:42:09.461Z,72.9
2018-04-14T11:42:58.992Z,72.9
2018-04-14T11:43:49.848Z,73
2018-04-14T11:44:39.942Z,73
2018-04-14T11:45:28.863Z,73.1
2018-04-14T11:46:19.805Z,73.1
2018-04-14T11:47:09.307Z,73.2
2018-04-14T11:48:00.187Z,73.2
2018-04-14T11:48:50.269Z,73.3
2018-04-14T11:49:40.047Z,73.4
2018-04-14T11:50:29.828Z,73.4
2018-04-14T11:51:19.896Z,73.4
2018-04-14T11:52:10.237Z,73.4
2018-04-14T11:53:00.252Z,73.5
2018-04-14T11:53:50.083Z,73.6
2018-04-14T11:54:40.414Z,73.6
2018-04-14T11:55:30.491Z,73.6
2018-04-14T11:56:20.849Z,73.6
2018-04-14T11:57:10.697Z,73.7
2018-04-14T11:58:00.692Z,73.7
2018-04-14T11:58:51.048Z,73.8
2018-04-14T11:59:40.530Z,73.8